Archival Weather

Pemba

Pemba, Mozambique (FQPB)

Report from: Saturday, April 1, 2023 4:00 AM CAT
Current time: Saturday, June 22, 2024 2:00 AM CAT

Current weather – Weather history – Daily summaries
Weather forecast

Temperature24.0°C (75.2°F)
Dew point23.0°C (73.4°F)
Winds 6 kts (3.1 m/s, 6.9 mph) Southwest (230°)
Visibility6.2 mi. (10 km)
Clouds Ceiling: Broken clouds 0 ft. (0 m)
Few clouds 2,000 ft. (610 m)
Altimeter29.88 in.Hg (1012 mB)
Relative humidity94 %
Density altitude1,463 ft. (446 m)
Flight conditions Low Instrument Meteorological Conditions
Raw dataFQPB 010200Z 23006KT 9999 FEW020 BKN/// 24/23 Q1012
An error has occurred. This application may no longer respond until reloaded. Reload 🗙